createdAt,value
2023-06-01T00:00:24.629Z,65.38
2023-06-01T00:02:52.536Z,66.08
2023-06-01T00:05:20.337Z,65.91
2023-06-01T00:07:48.251Z,66.65
2023-06-01T00:10:16.083Z,66.77
2023-06-01T00:12:44.330Z,66.60
2023-06-01T00:15:12.251Z,66.77
2023-06-01T00:17:39.853Z,66.90
2023-06-01T00:20:09.437Z,67.64
2023-06-01T00:22:39.910Z,67.96
2023-06-01T00:25:09.260Z,67.80
2023-06-01T00:27:37.311Z,68.47
2023-06-01T00:30:05.947Z,68.38
2023-06-01T00:32:33.716Z,68.50
2023-06-01T00:35:01.472Z,68.56
2023-06-01T00:37:29.888Z,68.94
2023-06-01T00:39:57.398Z,68.94
2023-06-01T00:42:25.008Z,69.45
2023-06-01T00:44:54.702Z,69.20
2023-06-01T00:47:22.756Z,68.84
2023-06-01T00:49:50.827Z,69.14
2023-06-01T00:52:19.374Z,68.77
2023-06-01T00:54:46.933Z,69.35
2023-06-01T00:57:14.922Z,69.25
2023-06-01T00:59:42.575Z,69.18
2023-06-01T01:02:10.701Z,68.71
2023-06-01T01:04:38.793Z,68.75
2023-06-01T01:07:27.425Z,68.63
2023-06-01T01:10:07.976Z,68.57
2023-06-01T01:12:48.029Z,68.45
2023-06-01T01:15:33.842Z,67.32
2023-06-01T01:18:08.528Z,67.72
2023-06-01T01:20:39.931Z,67.98
2023-06-01T01:23:18.232Z,67.76
2023-06-01T01:25:54.827Z,66.25
2023-06-01T01:28:48.083Z,65.45
2023-06-01T01:31:19.821Z,65.67
2023-06-01T01:33:48.978Z,65.02
2023-06-01T01:36:17.494Z,64.87
2023-06-01T01:38:45.342Z,65.06
2023-06-01T01:41:13.121Z,64.17
2023-06-01T01:43:41.274Z,63.82
2023-06-01T01:46:28.495Z,63.84
2023-06-01T01:49:43.535Z,64.09
2023-06-01T01:52:19.325Z,63.69
2023-06-01T01:54:48.796Z,62.67
2023-06-01T01:57:18.131Z,62.42
2023-06-01T01:59:47.552Z,62.15
2023-06-01T02:02:15.100Z,61.79
2023-06-01T02:04:43.927Z,61.77
2023-06-01T02:07:11.588Z,62.33
2023-06-01T02:09:40.561Z,62.31
2023-06-01T02:12:08.578Z,61.41
2023-06-01T02:14:36.226Z,61.50
2023-06-01T02:17:04.037Z,60.76
2023-06-01T02:19:31.556Z,60.67
2023-06-01T02:21:59.406Z,60.18
2023-06-01T02:24:27.186Z,59.92
2023-06-01T02:26:55.026Z,60.74
2023-06-01T02:29:23.643Z,60.41
2023-06-01T02:31:52.397Z,61.22
2023-06-01T02:34:21.282Z,60.30
2023-06-01T02:36:49.665Z,60.13
2023-06-01T02:39:18.308Z,59.14
2023-06-01T02:41:46.264Z,59.50
2023-06-01T02:44:14.118Z,58.67
2023-06-01T02:46:41.618Z,59.32
2023-06-01T02:49:09.734Z,58.63
2023-06-01T02:51:37.657Z,57.76
2023-06-01T02:54:05.162Z,57.49
2023-06-01T02:56:32.660Z,56.14
2023-06-01T02:59:00.228Z,56.42
2023-06-01T03:01:28.993Z,55.29
2023-06-01T03:03:56.720Z,56.18
2023-06-01T03:06:24.352Z,54.86
2023-06-01T03:08:52.128Z,55.26
2023-06-01T03:11:19.956Z,54.72
2023-06-01T03:13:48.002Z,54.32
2023-06-01T03:16:17.693Z,54.30
2023-06-01T03:18:45.782Z,52.56
2023-06-01T03:21:13.300Z,53.11
2023-06-01T03:23:44.873Z,52.75
2023-06-01T03:26:13.657Z,52.15
2023-06-01T03:28:41.123Z,52.82
2023-06-01T03:31:08.763Z,51.92
2023-06-01T03:33:36.359Z,52.03
2023-06-01T03:36:04.785Z,51.72
2023-06-01T03:38:32.571Z,52.01
2023-06-01T03:41:00.904Z,51.61
2023-06-01T03:43:28.751Z,51.48
2023-06-01T03:45:57.535Z,51.20
2023-06-01T03:48:25.122Z,51.42
2023-06-01T03:50:53.108Z,51.88
2023-06-01T03:53:21.422Z,52.16
2023-06-01T03:55:49.462Z,51.18
2023-06-01T03:58:17.112Z,51.92
2023-06-01T04:00:47.671Z,51.51
2023-06-01T04:03:16.527Z,51.13
2023-06-01T04:05:49.570Z,51.49
2023-06-01T04:08:18.426Z,49.79
2023-06-01T04:10:45.851Z,50.21
2023-06-01T04:13:13.638Z,50.63
2023-06-01T04:15:41.696Z,50.39
2023-06-01T04:18:09.176Z,50.47
2023-06-01T04:20:37.002Z,50.40
2023-06-01T04:23:04.526Z,50.59
2023-06-01T04:25:33.185Z,50.29
2023-06-01T04:28:00.784Z,49.85
2023-06-01T04:30:28.337Z,50.37
2023-06-01T04:32:55.961Z,49.18
2023-06-01T04:35:23.879Z,48.86
2023-06-01T04:37:51.836Z,48.28
2023-06-01T04:40:19.471Z,48.65
2023-06-01T04:42:50.427Z,48.08
2023-06-01T04:45:20.062Z,48.97
2023-06-01T04:47:48.191Z,48.56
2023-06-01T04:50:17.583Z,47.52
2023-06-01T04:52:45.888Z,47.20
2023-06-01T04:55:14.674Z,46.99
2023-06-01T04:57:44.620Z,47.42
2023-06-01T05:00:14.433Z,47.70
2023-06-01T05:02:45.163Z,47.35
2023-06-01T05:05:13.213Z,46.92
2023-06-01T05:07:42.916Z,47.41
2023-06-01T05:10:13.186Z,46.89
2023-06-01T05:12:40.959Z,46.06
2023-06-01T05:15:09.861Z,44.50
2023-06-01T05:17:39.789Z,44.30
2023-06-01T05:20:10.317Z,43.02
2023-06-01T05:22:38.965Z,42.82
2023-06-01T05:25:07.275Z,41.81
2023-06-01T05:27:35.334Z,41.84
2023-06-01T05:30:03.437Z,42.01
2023-06-01T05:32:31.565Z,41.99
2023-06-01T05:34:59.215Z,41.86
2023-06-01T05:37:27.256Z,56.23
2023-06-01T05:39:55.048Z,59.70
2023-06-01T05:42:22.849Z,56.11
2023-06-01T05:44:50.596Z,65.67
2023-06-01T05:47:18.399Z,57.48
2023-06-01T05:49:46.891Z,58.09
2023-06-01T05:52:15.101Z,63.65
2023-06-01T05:54:43.625Z,51.45
2023-06-01T05:57:11.355Z,54.78
2023-06-01T05:59:38.834Z,52.04
2023-06-01T06:02:06.745Z,56.00
2023-06-01T06:04:34.334Z,52.42
2023-06-01T06:07:01.806Z,55.66
2023-06-01T06:09:29.267Z,53.06
2023-06-01T06:11:57.174Z,52.52
2023-06-01T06:14:25.072Z,58.10
2023-06-01T06:16:52.817Z,51.36
2023-06-01T06:19:20.372Z,45.08
2023-06-01T06:21:47.933Z,47.43
2023-06-01T06:24:15.992Z,43.58
2023-06-01T06:26:43.786Z,41.52
2023-06-01T06:29:11.821Z,43.56
2023-06-01T06:31:39.848Z,41.81
2023-06-01T06:34:07.633Z,43.99
2023-06-01T06:36:35.056Z,41.97
2023-06-01T06:39:02.620Z,41.94
2023-06-01T06:41:30.430Z,43.13
2023-06-01T06:43:58.749Z,45.28
2023-06-01T06:46:26.553Z,48.01
2023-06-01T06:48:54.384Z,47.02
2023-06-01T06:51:22.564Z,45.67
2023-06-01T06:53:50.745Z,45.22
2023-06-01T06:56:18.389Z,45.82
2023-06-01T06:58:56.545Z,44.11
2023-06-01T07:01:28.144Z,47.80
2023-06-01T07:03:56.936Z,49.81
2023-06-01T07:06:24.522Z,46.98
2023-06-01T07:08:52.428Z,46.55
2023-06-01T07:11:20.353Z,50.46
2023-06-01T07:13:48.186Z,46.76
2023-06-01T07:16:15.931Z,39.99
2023-06-01T07:18:43.498Z,38.18
2023-06-01T07:21:11.039Z,29.39
2023-06-01T07:23:38.921Z,30.87
2023-06-01T07:26:07.048Z,27.53
2023-06-01T07:28:34.831Z,26.06
2023-06-01T07:31:04.065Z,27.93
2023-06-01T07:33:32.454Z,24.69
2023-06-01T07:36:00.058Z,31.02
2023-06-01T07:38:27.917Z,32.13
2023-06-01T07:40:55.907Z,30.43
2023-06-01T07:43:23.607Z,30.10
2023-06-01T07:45:51.230Z,27.58
2023-06-01T07:48:18.809Z,34.17
2023-06-01T07:50:46.408Z,31.05
2023-06-01T07:53:14.604Z,32.71
2023-06-01T07:55:42.366Z,31.24
2023-06-01T07:58:10.765Z,30.05
2023-06-01T08:00:38.557Z,33.39
2023-06-01T08:03:07.608Z,32.99
2023-06-01T08:05:38.839Z,34.05
2023-06-01T08:08:07.046Z,35.04
2023-06-01T08:10:34.842Z,34.20
2023-06-01T08:13:03.440Z,35.57
2023-06-01T08:15:31.948Z,40.16
2023-06-01T08:17:59.770Z,36.09
2023-06-01T08:20:28.697Z,38.29
2023-06-01T08:22:56.552Z,38.26
2023-06-01T08:25:24.321Z,43.78
2023-06-01T08:27:52.743Z,43.77
2023-06-01T08:30:20.307Z,43.20
2023-06-01T08:32:50.034Z,41.94
2023-06-01T08:35:18.103Z,45.43
2023-06-01T08:37:48.120Z,42.95
2023-06-01T08:40:16.079Z,40.69
2023-06-01T08:42:47.129Z,42.38
2023-06-01T08:45:15.108Z,43.96
2023-06-01T08:47:43.493Z,41.69
2023-06-01T08:50:12.276Z,43.30
2023-06-01T08:52:42.513Z,41.41
2023-06-01T08:55:10.332Z,39.62
2023-06-01T08:57:41.621Z,40.24
2023-06-01T09:00:12.576Z,43.66
2023-06-01T09:02:41.556Z,42.39
2023-06-01T09:05:09.538Z,42.56
2023-06-01T09:07:37.033Z,39.91
2023-06-01T09:10:05.193Z,44.53
2023-06-01T09:12:36.162Z,42.06
2023-06-01T09:15:20.186Z,41.34
2023-06-01T09:17:51.097Z,39.58
2023-06-01T09:20:29.176Z,42.29
2023-06-01T09:22:57.146Z,42.17
2023-06-01T09:25:35.034Z,41.78
2023-06-01T09:28:03.441Z,42.75
2023-06-01T09:30:42.413Z,41.94
2023-06-01T09:33:17.291Z,42.60
2023-06-01T09:35:47.985Z,40.47
2023-06-01T09:38:26.988Z,39.33
2023-06-01T09:41:03.009Z,41.55
2023-06-01T09:43:32.066Z,41.97
2023-06-01T09:46:09.424Z,41.33
2023-06-01T09:48:38.006Z,40.35
2023-06-01T09:51:06.394Z,40.88
2023-06-01T09:53:44.156Z,38.59
2023-06-01T09:56:12.334Z,39.98
2023-06-01T09:58:42.149Z,39.94
2023-06-01T10:01:10.750Z,38.61
2023-06-01T10:03:43.494Z,41.47
2023-06-01T10:06:15.874Z,38.98
2023-06-01T10:08:43.703Z,39.83
2023-06-01T10:11:11.864Z,37.22
2023-06-01T10:13:39.904Z,40.70
2023-06-01T10:16:08.434Z,41.33
2023-06-01T10:18:37.521Z,42.44
2023-06-01T10:21:07.787Z,41.55
2023-06-01T10:23:36.177Z,39.98
2023-06-01T10:26:11.938Z,40.48
2023-06-01T10:28:43.288Z,40.87
2023-06-01T10:31:42.540Z,40.35
2023-06-01T10:34:14.353Z,40.98
2023-06-01T10:36:54.437Z,40.84
2023-06-01T10:39:26.617Z,40.73
2023-06-01T10:41:56.626Z,40.41
2023-06-01T10:44:42.364Z,42.65
2023-06-01T10:47:12.875Z,42.09
2023-06-01T10:49:54.523Z,41.10
2023-06-01T10:52:42.523Z,42.78
2023-06-01T10:55:14.812Z,40.35
2023-06-01T10:57:45.043Z,41.94
2023-06-01T11:00:16.470Z,41.17
2023-06-01T11:02:58.004Z,41.06
2023-06-01T11:05:35.314Z,40.95
2023-06-01T11:08:03.105Z,40.82
2023-06-01T11:11:00.959Z,42.57
2023-06-01T11:13:37.261Z,42.25
2023-06-01T11:16:09.051Z,42.17
2023-06-01T11:18:47.722Z,41.26
2023-06-01T11:21:19.362Z,41.09
2023-06-01T11:23:47.119Z,41.71
2023-06-01T11:26:19.191Z,42.24
2023-06-01T11:28:48.326Z,42.68
2023-06-01T11:31:17.634Z,42.13
2023-06-01T11:33:54.083Z,43.62
2023-06-01T11:36:24.947Z,43.13
2023-06-01T11:39:03.702Z,42.14
2023-06-01T11:41:40.631Z,41.75
2023-06-01T11:44:08.474Z,42.16
2023-06-01T11:46:37.773Z,42.28
2023-06-01T11:49:07.063Z,43.11
2023-06-01T11:51:38.387Z,42.48
2023-06-01T11:54:06.820Z,42.08
2023-06-01T11:56:37.291Z,43.00
2023-06-01T11:59:09.779Z,43.40
2023-06-01T12:01:43.690Z,42.94
2023-06-01T12:04:16.082Z,44.07
2023-06-01T12:06:44.264Z,43.49
2023-06-01T12:09:14.178Z,43.39
2023-06-01T12:11:44.271Z,44.30
2023-06-01T12:14:14.747Z,45.05
2023-06-01T12:17:04.374Z,43.37
2023-06-01T12:19:33.514Z,44.38
2023-06-01T12:22:01.968Z,42.77
2023-06-01T12:24:34.284Z,43.89
2023-06-01T12:27:04.029Z,42.56
2023-06-01T12:29:38.944Z,42.34
2023-06-01T12:32:07.348Z,40.89
2023-06-01T12:34:39.215Z,40.75
2023-06-01T12:37:21.682Z,41.02
2023-06-01T12:39:57.386Z,41.00
2023-06-01T12:42:41.918Z,39.48
2023-06-01T12:45:10.222Z,40.16
2023-06-01T12:47:39.542Z,39.77
2023-06-01T12:50:13.326Z,40.23
2023-06-01T12:52:45.610Z,39.69
2023-06-01T12:55:13.610Z,40.06
2023-06-01T12:57:41.868Z,39.66
2023-06-01T13:00:10.292Z,39.34
2023-06-01T13:02:39.132Z,40.79
2023-06-01T13:05:07.354Z,40.65
2023-06-01T13:07:35.142Z,40.77
2023-06-01T13:10:02.989Z,40.84
2023-06-01T13:12:31.059Z,40.59
2023-06-01T13:14:58.864Z,41.09
2023-06-01T13:17:27.769Z,40.10
2023-06-01T13:19:55.946Z,40.30
2023-06-01T13:22:23.481Z,39.84
2023-06-01T13:25:03.841Z,40.61
2023-06-01T13:27:35.104Z,37.67
2023-06-01T13:30:05.168Z,37.32
2023-06-01T13:32:33.240Z,37.80
2023-06-01T13:35:01.315Z,38.84
2023-06-01T13:37:29.149Z,38.76
2023-06-01T13:39:56.693Z,39.54
2023-06-01T13:42:24.481Z,40.48
2023-06-01T13:44:52.224Z,41.18
2023-06-01T13:47:20.194Z,40.36
2023-06-01T13:49:47.788Z,39.78
2023-06-01T13:52:15.586Z,39.08
2023-06-01T13:54:43.293Z,38.39
2023-06-01T13:57:11.700Z,37.93
2023-06-01T13:59:39.495Z,37.01
2023-06-01T14:02:08.311Z,36.14
2023-06-01T14:04:35.882Z,35.83
2023-06-01T14:07:03.671Z,34.96
2023-06-01T14:09:31.636Z,35.39
2023-06-01T14:11:59.322Z,35.33
2023-06-01T14:14:27.112Z,35.50
2023-06-01T14:16:54.927Z,35.58
2023-06-01T14:19:23.240Z,35.38
2023-06-01T14:21:51.464Z,35.82
2023-06-01T14:24:19.544Z,35.59
2023-06-01T14:26:47.525Z,35.60
2023-06-01T14:29:15.283Z,35.63
2023-06-01T14:31:43.782Z,34.63
2023-06-01T14:34:11.552Z,34.61
2023-06-01T14:39:10.280Z,35.22
2023-06-01T14:41:37.843Z,35.13
2023-06-01T14:44:05.666Z,37.60
2023-06-01T14:46:33.159Z,36.54
2023-06-01T14:49:02.332Z,36.41
2023-06-01T14:51:29.833Z,37.36
2023-06-01T14:53:57.572Z,38.60
2023-06-01T14:56:25.239Z,38.96
2023-06-01T14:58:53.556Z,36.86
2023-06-01T15:01:21.493Z,37.04
2023-06-01T15:03:49.580Z,37.63
2023-06-01T15:06:17.418Z,38.13
2023-06-01T15:08:45.236Z,37.69
2023-06-01T15:11:15.083Z,36.05
2023-06-01T15:13:43.610Z,36.83
2023-06-01T15:16:12.022Z,35.24
2023-06-01T15:18:39.985Z,35.01
2023-06-01T15:21:07.876Z,36.19
2023-06-01T15:23:35.620Z,35.87
2023-06-01T15:26:04.019Z,35.78
2023-06-01T15:28:31.859Z,36.40
2023-06-01T15:30:59.739Z,35.46
2023-06-01T15:33:27.624Z,35.62
2023-06-01T15:35:55.324Z,35.24
2023-06-01T15:38:22.965Z,34.22
2023-06-01T15:40:50.472Z,35.11
2023-06-01T15:43:18.020Z,35.72
2023-06-01T15:45:45.595Z,36.15
2023-06-01T15:48:13.280Z,35.34
2023-06-01T15:50:40.884Z,35.83
2023-06-01T15:53:08.509Z,35.78
2023-06-01T15:55:36.347Z,35.68
2023-06-01T15:58:04.217Z,35.99
2023-06-01T16:00:32.471Z,35.82
2023-06-01T16:03:00.333Z,36.16
2023-06-01T16:05:28.230Z,36.26
2023-06-01T16:07:56.076Z,36.06
2023-06-01T16:10:24.055Z,36.18
2023-06-01T16:12:51.882Z,36.17
2023-06-01T16:15:19.522Z,38.24
2023-06-01T16:17:47.316Z,41.00
2023-06-01T16:20:14.919Z,41.13
2023-06-01T16:22:42.508Z,40.05
2023-06-01T16:25:11.214Z,41.22
2023-06-01T16:27:38.932Z,41.60
2023-06-01T16:30:07.440Z,42.46
2023-06-01T16:32:36.007Z,41.74
2023-06-01T16:35:04.057Z,42.19
2023-06-01T16:37:31.877Z,43.44
2023-06-01T16:39:59.646Z,43.95
2023-06-01T16:42:27.179Z,45.19
2023-06-01T16:44:54.705Z,43.96
2023-06-01T16:47:22.221Z,43.80
2023-06-01T16:49:50.271Z,44.60
2023-06-01T16:52:17.794Z,45.12
2023-06-01T16:54:45.256Z,45.34
2023-06-01T16:57:13.001Z,45.94
2023-06-01T16:59:40.524Z,46.13
2023-06-01T17:02:08.251Z,47.15
2023-06-01T17:04:35.756Z,46.85
2023-06-01T17:07:03.615Z,46.68
2023-06-01T17:09:31.460Z,46.98
2023-06-01T17:11:59.334Z,46.56
2023-06-01T17:14:27.548Z,46.21
2023-06-01T17:16:55.543Z,46.66
2023-06-01T17:19:23.516Z,46.63
2023-06-01T17:21:51.050Z,46.29
2023-06-01T17:24:18.559Z,46.45
2023-06-01T17:26:46.232Z,45.87
2023-06-01T17:29:13.780Z,44.93
2023-06-01T17:31:41.358Z,43.26
2023-06-01T17:34:09.034Z,44.34
2023-06-01T17:36:37.617Z,45.34
2023-06-01T17:39:05.298Z,46.18
2023-06-01T17:41:32.862Z,46.71
2023-06-01T17:44:00.535Z,46.88
2023-06-01T17:46:28.377Z,46.60
2023-06-01T17:48:56.305Z,46.26
2023-06-01T17:51:23.844Z,46.69
2023-06-01T17:53:51.765Z,47.22
2023-06-01T17:56:19.660Z,47.32
2023-06-01T17:58:47.231Z,46.74
2023-06-01T18:01:15.217Z,46.75
2023-06-01T18:03:43.308Z,46.17
2023-06-01T18:06:15.650Z,46.83
2023-06-01T18:08:44.794Z,46.29
2023-06-01T18:11:12.751Z,45.20
2023-06-01T18:13:41.273Z,46.18
2023-06-01T18:16:10.396Z,46.01
2023-06-01T18:18:38.519Z,46.00
2023-06-01T18:21:06.652Z,45.23
2023-06-01T18:23:34.826Z,45.76
2023-06-01T18:26:03.171Z,45.96
2023-06-01T18:28:31.486Z,45.86
2023-06-01T18:30:59.020Z,45.71
2023-06-01T18:33:26.636Z,45.75
2023-06-01T18:35:54.523Z,45.68
2023-06-01T18:38:22.363Z,45.14
2023-06-01T18:40:50.162Z,45.40
2023-06-01T18:43:18.525Z,45.28
2023-06-01T18:45:46.157Z,45.75
2023-06-01T18:48:14.029Z,45.47
2023-06-01T18:50:41.859Z,45.98
2023-06-01T18:53:09.617Z,46.97
2023-06-01T18:55:37.304Z,46.58
2023-06-01T18:58:05.128Z,47.41
2023-06-01T19:00:33.631Z,48.38
2023-06-01T19:03:01.721Z,47.90
2023-06-01T19:05:29.615Z,47.86
2023-06-01T19:07:57.298Z,48.73
2023-06-01T19:10:48.739Z,48.80
2023-06-01T19:13:17.580Z,48.56
2023-06-01T19:15:45.107Z,48.71
2023-06-01T19:18:13.013Z,47.88
2023-06-01T19:20:43.267Z,48.96
2023-06-01T19:23:11.667Z,49.16
2023-06-01T19:25:39.460Z,48.88
2023-06-01T19:28:07.235Z,49.02
2023-06-01T19:30:34.713Z,50.45
2023-06-01T19:33:02.396Z,49.25
2023-06-01T19:35:31.118Z,48.87
2023-06-01T19:37:58.992Z,48.59
2023-06-01T19:40:28.535Z,47.69
2023-06-01T19:42:57.716Z,47.41
2023-06-01T19:45:25.604Z,48.82
2023-06-01T19:47:54.046Z,48.52
2023-06-01T19:50:33.914Z,48.40
2023-06-01T19:53:03.297Z,48.24
2023-06-01T19:55:31.356Z,48.46
2023-06-01T19:57:59.679Z,47.73
2023-06-01T20:00:29.337Z,49.72
2023-06-01T20:02:59.729Z,48.73
2023-06-01T20:05:27.951Z,49.17
2023-06-01T20:08:02.509Z,49.18
2023-06-01T20:10:33.185Z,49.33
2023-06-01T20:13:04.269Z,48.98
2023-06-01T20:15:35.675Z,50.13
2023-06-01T20:18:05.935Z,49.18
2023-06-01T20:20:39.751Z,49.52
2023-06-01T20:23:12.554Z,49.46
2023-06-01T20:25:42.491Z,48.84
2023-06-01T20:28:12.886Z,49.49
2023-06-01T20:31:05.603Z,49.41
2023-06-01T20:33:34.993Z,48.67
2023-06-01T20:36:07.930Z,48.44
2023-06-01T20:38:44.653Z,48.03
2023-06-01T20:41:17.216Z,45.83
2023-06-01T20:43:45.244Z,44.09
2023-06-01T20:46:14.390Z,43.74
2023-06-01T20:48:50.572Z,44.17
2023-06-01T20:51:27.558Z,45.13
2023-06-01T20:54:01.995Z,45.25
2023-06-01T20:56:34.165Z,44.08
2023-06-01T20:59:13.513Z,44.43
2023-06-01T21:01:44.280Z,43.67
2023-06-01T21:04:13.991Z,43.11
2023-06-01T21:06:42.254Z,43.23
2023-06-01T21:09:12.014Z,42.72
2023-06-01T21:11:44.584Z,43.47
2023-06-01T21:14:12.513Z,43.53
2023-06-01T21:16:40.651Z,43.73
2023-06-01T21:19:08.532Z,43.38
2023-06-01T21:21:39.336Z,42.78
2023-06-01T21:24:10.785Z,42.65
2023-06-01T21:26:40.248Z,42.86
2023-06-01T21:29:10.037Z,43.66
2023-06-01T21:31:38.092Z,42.85
2023-06-01T21:34:06.076Z,42.37
2023-06-01T21:36:33.687Z,42.29
2023-06-01T21:39:01.358Z,41.54
2023-06-01T21:41:28.911Z,42.44
2023-06-01T21:43:56.477Z,42.71
2023-06-01T21:46:24.035Z,42.13
2023-06-01T21:48:51.549Z,42.54
2023-06-01T21:51:19.017Z,42.91
2023-06-01T21:53:46.822Z,42.04
2023-06-01T21:56:14.869Z,42.23
2023-06-01T21:58:43.025Z,43.06
2023-06-01T22:01:10.964Z,43.22
2023-06-01T22:03:38.792Z,42.48
2023-06-01T22:06:06.746Z,41.72
2023-06-01T22:08:34.480Z,40.67
2023-06-01T22:11:02.024Z,41.30
2023-06-01T22:13:29.812Z,41.08
2023-06-01T22:15:57.623Z,41.85
2023-06-01T22:18:25.407Z,42.28
2023-06-01T22:20:53.200Z,43.10
2023-06-01T22:23:21.132Z,43.52
2023-06-01T22:25:48.690Z,44.21
2023-06-01T22:28:16.250Z,45.20
2023-06-01T22:30:43.769Z,45.31
2023-06-01T22:33:11.303Z,45.64
2023-06-01T22:35:38.846Z,45.92
2023-06-01T22:38:06.446Z,45.24
2023-06-01T22:40:34.369Z,45.85
2023-06-01T22:43:02.156Z,45.96
2023-06-01T22:45:30.020Z,46.09
2023-06-01T22:47:57.868Z,46.85
2023-06-01T22:50:26.026Z,47.05
2023-06-01T22:52:54.576Z,47.05
2023-06-01T22:55:22.395Z,46.55
2023-06-01T22:57:49.920Z,45.95
2023-06-01T23:00:17.693Z,46.11
2023-06-01T23:02:45.629Z,46.61
2023-06-01T23:05:14.041Z,46.99
2023-06-01T23:07:42.129Z,47.65
2023-06-01T23:10:10.731Z,46.92
2023-06-01T23:12:38.732Z,47.42
2023-06-01T23:15:07.102Z,47.33
2023-06-01T23:17:35.194Z,47.50
2023-06-01T23:20:06.941Z,47.39
2023-06-01T23:22:37.751Z,47.69
2023-06-01T23:25:06.479Z,47.96
2023-06-01T23:27:33.961Z,46.80
2023-06-01T23:30:01.861Z,46.59
2023-06-01T23:32:29.481Z,47.40
2023-06-01T23:34:57.341Z,48.07
2023-06-01T23:37:28.712Z,47.62
2023-06-01T23:39:57.585Z,47.64
2023-06-01T23:42:25.358Z,47.03
2023-06-01T23:44:52.942Z,46.76
2023-06-01T23:47:21.774Z,47.37
2023-06-01T23:49:49.426Z,47.14
2023-06-01T23:52:17.224Z,47.24
2023-06-01T23:54:45.014Z,47.01
2023-06-01T23:57:13.168Z,46.80
2023-06-01T23:59:41.152Z,47.50
